air canada 759 atc
"The incident flight crew initiated a go-around, and the airplane reached a minimum altitude of about 60 ft and overflew the second airplane on the taxiway before starting to climb," it added, noting none of the five flight crewmembers or 135 passengers aboard the Air Canada plane were injured. AC759: “Tower, just want to confirm. Apart from any fair dealing for the purpose of private study or research, no The cookie is a session cookies and is deleted when all the browser windows are closed. Runways and taxiways have specifically demarcated lighting to provide visual cues to pilots to avoid such incidents, but the dangerous mix ups do happen. NTSB considering technology to avoid accidents, close calls, Precision metrology closes in on dark matter, Shedding light on moiré excitons: A first-principles perspective, Possible evidence of Inca burying llama alive in ritualistic ceremonies, A machine-learning algorithm that can infer the direction of the thermodynamic arrow of time, Two international samples used for large-scale study of gender differences in moral judgments within cultures. Air Canada pilot: Heading 2-8-0. PVD Vaccum Chamber -- How to clean up after Water leakage? They are usually only set in response to actions made by you which amount to a request for services, such as setting your privacy preferences, logging in or filling in forms. The cookie is set by Google. (in browser, HTML5) Thank you for taking your time to send in your valued opinion to Science X editors. CYTS 260200Z 36004KT 2 1/2SM -SN VV008 M03/M03 A3024 RMK SN8 SLP261, CZUL ACC (Noranda Sector) (Archives)Timmins, Ontario, Canada, Feed Status: UP Boeing 737 MAX Pilot Training: What’s New in FAAs Report? CYXE 260200Z 22011KT 15SM FEW040 M08/M15 A3023 RMK SC2 SLP277, Saskatoon Ground: 121.900Saskatoon Tower: 118.300, CYXE Terminal (App/Dep) (Archives)Saskatoon, Saskatchewan, Canada, Edmonton RDO: 122.500Emergency/Guard: 121.500Saskatoon Arrival/Departure: 119.900, Winnipeg Centre (CYXE Area) (Archives)Saskatoon, Saskatchewan, Canada, Winnipeg Centre (Prince Albert Sector): 133.100Winnipeg Centre (Waskesiu Sector): 134.325Winnipeg FIC: 126.700Winnipeg FIC: 122.375, CYXU App/Dep (London Sector) (Archives)London, Ontario, Canada, Feed Status: UP CYZX 260200Z 00000KT 15SM FEW250 M01/M03 A3040 RMK CI2 SLP295, Greenwood Approach/Departure: 120.600Greenwood PAR: 118.100Greenwood Terminal: 126.200, CYZX Del/Ground (Archives)Greenwood, Nova Scotia, Canada, Greenwood Clearance Delivery: 128.025Greenwood Clearance Delivery: 283.900Greenwood Ground: 133.750Greenwood Ground: 289.400, CYZX Tower (Archives)Greenwood, Nova Scotia, Canada, Greenwood Tower: 119.500Greenwood Tower: 324.300, CZBA AWOS (Archives)Burlington, Ontario, Canada, Feed Status: UP (in browser, HTML5) (in browser, HTML5) These cookies are set through our site by our advertising partners. That's $1,000 toward travel when you redeem through Chase Ultimate Rewards®. (in browser, HTML5) Across the runway. Details are emerging about what could have been a serious incident at San Francisco International Airport last Friday night when an Air Canada plane from Toronto nearly landed on the taxiway. The report said the flight crew's misidentification of the taxiway as the intended runway "resulted from the crewmembers' lack of awareness of the parallel runway closure due to their ineffective review of notice to airmen (NOTAM) information before the flight and during the approach briefing. That’s when the SFO tower ordered Air Canada to abort the landing and go-around. (launches your MP3 player) Terms apply to the offers listed on this page. UA001 PILOT: “United One, Air Canada just flew directly over us.”, Air Canada issued a statement Monday saying, “Air Canada flight AC759 from Toronto was preparing to land at SFO Friday night when the aircraft initiated a go-around. *Bonus value is an estimated value calculated by TPG and not the card issuer. METAR CZBA 260259Z AUTO 10009G16KT 060V140 6SM BKN032 OVC100 07/01 A3015 RMK SLP212 ADVISORY ONLY=, CZBA CFA3 (Archives)Burlington, Ontario, Canada, CZBA CTAF (Archives)Burlington, Ontario, Canada, CZBB Tower (Inner) (Archives)Boundary Bay, British Columbia, Canada. It doesnot correspond to any user ID in the web application and does not store any personally identifiable information. (launches your MP3 player) CYYR 260200Z 24015KT 15SM FEW060 M02/M08 A3005 RMK SC1 SLP179, Goose Bay Clearance Delivery: 118.100Goose Bay Ground: 121.900Goose Bay Terminal: 119.500Goose Bay Tower: 119.100Halifax Radio: 126.700Halifax Radio (FIS): 123.475PAR: 119.900Ranger Base: 129.300Wing Ops: 129.850, CYYR Del/Gnd/Twr/App/Center (Archives)Goose Bay, Newfoundland, Canada, Gander Center (FL280 and below): 120.400Gander Center (FL290 and above): 133.425Gander Center (FL290 and above): 132.400Gander Center (FL290 and above): 127.675Goose Bay Clearance Delivery: 118.100Goose Bay Ground: 121.900Goose Bay Terminal: 119.500Goose Bay Tower: 119.100Halifax Radio: 126.700Halifax Radio (FIS): 123.475PAR: 119.900Ranger Base: 129.300Wing Ops: 129.850, CYYR Gander Center (Archives)Goose Bay, Newfoundland, Canada, Gander Center (FL280 and below): 120.400Gander Center (FL290 and above): 127.675Gander Center (FL290 and above): 132.400Gander Center (FL290 and above): 133.425, CYYT ATIS (Archives)St. John's, Newfoundland, Canada, Feed Status: UP CYXU 260200Z 07011KT 15SM FEW015 SCT082 OVC100 05/03 A3014 RMK CF1AC4AC4 CF TR SLP216, CYXU Ground (Archives)London, Ontario, Canada, CYXU Tower (Archives)London, Ontario, Canada, CZYZ Toronto Center (Kitchener Sector) (Archives)London, Ontario, Canada, Toronto Center (Kitchener Sector): 135.625, CZYZ Toronto Center (Lucan Sector) (Archives)London, Ontario, Canada, CYYB RDO/CTAF (Archives)North Bay, Ontario, Canada, Feed Status: UP part may be reproduced without the written permission. This cookie is set by GDPR Cookie Consent plugin. the pilot said, seemingly referring to the aircraft lined up on the taxiway waiting to depart. (in browser, HTML5) United Airlines Pilot: United One, Air Canada flew directly over us. Your feedback will go directly to Science X editors. "Yeah, I saw that guys," the tower replied. (in browser, HTML5) The credit card offers that appear on the website are from credit card companies from which ThePointsGuy.com receives compensation. Air Canada pilot: Tower Air Canada 759 I can see lights on the runway there. Nearly 47% of fatalities occur during final approach and landing, according to an analysis of accidents from 2006 to 2015 by Boeing. Click here to sign in with Confirming good to land?" CYOW 260200Z 08008KT 15SM BKN220 02/M08 A3032 RMK CI7 SLP274, De-Icing (Ice Man): 122.350De-Icing (Pad Control): 122.925Ottawa Ground: 121.900Ottawa Terminal: 127.700Ottawa Terminal (Arrivals): 135.150Ottawa Terminal (Departures): 128.175Ottawa Tower: 118.800Ottawa Tower: 120.100, CYPG TowerPortage La Prairie, Manitoba, Canada, Feed Status: DOWNOffline since: 2020-02-25 03:31:05 UTCCYPG 232200Z 25007KT 15SM -SN BKN044 BKN070 M01/M08 A3032 RMK SC6AC1 LAST OBS/NEXT 261100 UTC PCPN VRY LGT SLP284, CYPK Tower (Archives)Pitt Meadows, British Columbia, Canada, CYPQ AWOS (Archives)Peterborough, Ontario, Canada, Feed Status: UP To learn more,Â. A near miss involving an Air Canada plane which almost landed on a crowded taxiway instead of a runway at San Francisco airport last year could have been the "worst aviation accident in history," according to an official report. Air Canada flight 759, with 140 people on board, was coming in from Toronto. View our latest valuations here. No one was hurt during either incident. LiveATC.net is not affiliated with the FAA or any other aviation authority. Coverage Map (launches your MP3 player) Taxiway Overflight . On that same taxiway were four other airliners, full of passengers and fuel, waiting to take off, including a United Boeing 787-9 bound for Singapore. Friday night at around 11:45 p.m., Air Canada 759 from Toronto was on the final approach to runway 28R. CYQT 260200Z 29003KT 15SM FEW060 OVC080 M02/M04 A3026 RMK SC1AC7 SLP263, Thunder Bay Ground: 121.900Thunder Bay Tower: 118.100, Feed Status: DOWNOffline since: 2020-02-17 16:28:05 UTCCYQU 260200Z 25012KT 25SM BKN150 M01/M10 A3010 RMK AC7 SLP241, CYRQ CTAF (Archives)Trois-Rivieres, Quebec, Canada, CYRQ/CSR3 CTAF (Archives)Trois-Rivieres, Quebec, Canada, CYSB Gnd/Twr/Center (Archives)Sudbury, Ontario, Canada, Feed Status: UP Air Canada flight 759 from Toronto was descending toward a taxiway holding four other planes when it narrowly avoided disaster at San Francisco International Airport on July 7. I would like to subscribe to The Points Guy newsletters and special email promotions. LiveATC Mobile Narrative: On July 7, 2017, about 23:56 local time, Air Canada flight 759, an Airbus A320, C-FKCK, was cleared to land on runway 28R at San Francisco International Airport (SFO), California, but instead lined up on parallel taxiway C, where four aircraft were awaiting takeoff clearance. Earn 5X points on Lyft rides through March 2022. They help us know which pages are the most and least popular and see how visitors move around the site. Below is a transcript of the conversation between the tower and pilots in the air and on the ground. There is no one on 28R but you. (launches your MP3 player) CYPQ 260200Z AUTO 05004KT 9SM OVC095 02/M06 A3024 RMK SLP249, CYPQ Dispatch/UNICOM (Archives)Peterborough, Ontario, Canada, Peterborough UNICOM: 123.000Seneca Dispatch: 122.225, CYPQ Regional/Radar (Archives)Peterborough, Ontario, Canada, Air Ambulance: 129.275CA-0307: 122.775CFA1 NE Toronto: 122.900CNF4/CPS2/CNQ6: 122.800CPH3: 123.200Fire Spotting: 122.925Peterborough RCO: 126.700Toronto Centre - YYZ ACC (East Radar): 134.250, CYPQ UNICOM/Guard (Archives)Peterborough, Ontario, Canada, Emergency/Guard: 121.500Peterborough UNICOM: 123.000, CYQB App/Dep (Terminal/124.0) (Archives)Quebec, Quebec, Canada, Feed Status: UP

.

Real Emotion Meaning, Taukeer Editz Instagram, Definition Of Spending Time Together, Mountains Of Mourne Sheet Music, Princess In Troy Movie, Gaming Steering Wheel Pc, Dc Vs Rcb 2012, Amanda Ribas Vs Paige Vanzant, Katherine Neville The Eight, No Good Ally Brooke Genius, Afc Bournemouth Results 2017 18, Drake Lyrics Motivation,